Ashton, IL

4:11 PM CST on November 23, 2014 (GMT -0600)
Rochelle | Change Station
CLOSE
Current Station
Airport
Location: Rochelle,
Elevation: 781 ft
Nearby Weather Stations
Active Advisory: Winter Weather Advisory

Elev 781 ft 41.89 °N, 89.08 °W | Updated 16 minutes ago

Rain
Rain
48 °F
Feels Like 48 °F
N
12
Wind Variable Wind from SE

Today
High -- | Low -- °F
--% Chance of Precip.
Yesterday
High -- | Low -- °F
Precip. -- in
6:55 AM 4:30 PM
New Moon, 2% visible
Pressure 29.42 in
Visibility 4.0 miles
Clouds Overcast 800 ft
Dew Point 48 °F
Humidity 97%
Rainfall 0.20 in
Snow Depth Not available.
UV 0 out of 12
Pollen .10 out of 12
Air Quality Not available.
Flu Activity Not available.
METAR KRPJ 232155Z AUTO 13010KT 4SM -RA OVC008 09/09 A2942 RMK AO2 P0001 T00900086

More Conditions Fewer Conditions

Pressure 29.42 in
Visibility 4.0 miles
Clouds Overcast 800 ft
Dew Point 48 °F
Humidity 97%
Rainfall 0.20 in
Snow Depth Not available.
UV 0 out of 12
Pollen .10 out of 12
Air Quality Not available.
Flu Activity Not available.
METAR KRPJ 232155Z AUTO 13010KT 4SM -RA OVC008 09/09 A2942 RMK AO2 P0001 T00900086

More Conditions Fewer Conditions

10-Day Weather Forecast

Almanac

Astronomy

Nov. 23, 2014 Rise Set
Actual Time
Civil Twilight
Nautical Twilight
Astronomical Twilight
Moon
Length of Visible Light
Length of Day
Tomorrow will be .
, % of the Moon is Illuminated

Today's Extremes

State Highs State Lows

Community

WunderPhotos

Upload Photos

1,773,183 photos uploaded!

WunderBlogs® & News

Nearby

Air Quality

  Air Quality AQ Index Pollutant
Not available.

Snow Depth

Station Depth Elevation

Earthquake Activity

City Distance Mag. Time & Date
Minimum magnitude displayed is 2.5.

Coastal Water Temperatures

Place Temperature

Nearby Weather Stations